Sudbury Airport
CYSB : now visible

Airfield :











YOU CAN JOIN US ON...

 
LOGIN :

Register | Disclaimer

   EN    FR    IT 

 









Legend :    VFR   Marginal VFR   IFR   Intensive IFR   Very Intensive IFR
Visi :
Ceiling :
>= 8 km
>= 3000ft
5 to 8 km
1000 to 3000 ft
1500m to 5 km
500 to 1000 ft
800 to 1500m
200 to 500 ft
< 800m
< 200 ft
Symbols :   Thunderstorms  Fog  Heavy snow  Heavy precipitations  Wind > 20 kt







- Airport Elevation : 1141 ft
- IATA code : YSB


CYSB - Sudbury

CURRENT METAR :
  • 202000Z 19010KT 20SM FEW070 24/15 A3014 RMK CU1 SLP208 DENSITY ALT 2200FT

EXPIRED METARs :
  • 201900Z 15007KT 130V200 20SM FEW032 SCT120 23/15 A3015 RMK CU1AC2 SLP211 DENSITY ALT 2100FT
  • 201800Z 17007KT 160V220 20SM SCT120 BKN250 21/15 A3017 RMK AC4CI2 SLP220 DENSITY ALT 1900FT

TAF TAF CYSB
Valid from the 20 at 20:00 until the 21 at 08:00 UTC


201938Z 2020/2108 16007KT P6SM FEW030 SCT120
PROB30 2106/2108 1SM BR RMK NXT FCST BY 210200Z
No reported NOTAMs for that airfield.



MET'MAP, your aeronautical weather chart ! - Copyright ORBIFLY December 2007 - Disclaimer

ORBIFLY MET'MAP TEAM :

Programming & Development : Alexandra Zaïnal
Concept & Development : Baudouin d'Aumeries
Co-Development & Prog : Marc-Olivier Méhu
Technical & hardware support : Manuel Goepfert

Contact : metmap@orbifly.com




SOURCES & CREDITS :

   NOAA       Earth
Advisory